Network per fulmini e temporali in tempo reale
Regioni/Paesi:
Lista delle stazioni per "-" ordinata decrescente da Effettività L
(Effettività L = Numero di segnali ricevuti nell'utlima ora che sono stati utilizzati per calcolare la posizione di un fulmine con distanza fino a 5000 km (assoluto/relativo))
StazioneCittàCommentoPaeseStatoUltimo segnaleSegnaliEffettività SEffettività MEffettività L
1093North Bethesda (Red)Occasional powerline interfere...United States / MarylandRunning2017-02-24 19:185860|0%0|0%422|72%
1166Soddy Daisy250mm x 7.5mm ferrite, E-field...United States / TennesseeRunning2017-02-24 19:195280|0%267|78%410|70%
934Mauston250mm x 7.5mm ferriteUnited States / WisconsinRunning2017-02-24 19:187080|0%140|72%486|68%
1175IndependenceUnited States / IowaRunning2017-02-24 19:185510|0%2|99%377|67%
1700PeoriaUnshielded Ferrite Rods, 120 m...United States / IllinoisRunning2017-02-24 19:195100|0%396|68%397|65%
1565De Pere250mm x 7.5mm ferrite, E-Field...United States / WisconsinRunning2017-02-24 19:195300|0%129|78%379|64%
1591Sun PrairieSystem Blue with 10cm E-Field ...United States / WisconsinRunning2017-02-24 19:195970|0%367|65%383|64%
1177Athelstane300mm x 7.5mm ferrite, E-Field...United States / WisconsinRunning2017-02-24 19:185140|0%80|68%351|58%
1542Asheville300x7.5 ferrites, shielded, x,...United States / North CarolinaRunning2017-02-24 19:196760|0%0|0%367|54%
1439Frankfort BH-3▲-250x7.5mm -- E-150x4mmUnited States / KentuckyRunning2017-02-24 19:198540|0%453|55%457|53%
689Frankfort RH-2∟-300x7.5mm -- E-350x2mmUnited States / KentuckyRunning2017-02-24 19:189400|0%450|49%456|48%
1114SpartaRED: Shielded 200mm FerritesUnited States / New JerseyRunning2017-02-24 19:196260|0%0|0%303|48%
1189Clifton (Red)H-2∟250X7.5mm, E-200mmUnited States / VirginiaRunning2017-02-24 19:1910680|0%0|0%480|44%
953Appleton250mm x 7.5mm ferriteUnited States / WisconsinRunning2017-02-24 19:184200|0%120|57%323|43%
1451Clifton (Blue)H-3Δ 250X7.5mm, E-200mmUnited States / VirginiaRunning2017-02-24 19:1910000|0%0|0%432|43%
836Castano Primo (MI) - CMLItalyRunning2017-02-24 19:181910|0%81|42%83|42%
1076Komoka, OntarioRED 300mm x 7.5mm ferrite, AS3...CanadaRunning2017-02-24 19:1812180|0%132|36%474|38%
1006BlausteinE-field : 1000mm Ø0,05mm in c...GermanyRunning2017-02-24 19:191300|0%4|48%50|38%
1324Beamsville, OntarioFerrite rod, length=300mm, dia...CanadaRunning2017-02-24 19:194060|0%75|54%272|35%
1228RamseyRED, optimizing gain/trigger s...United States / New JerseyRunning2017-02-24 19:1911870|0%0|0%420|35%
1271OssRED, 200mm ferrite, E under co...NetherlandsRunning2017-02-24 19:181150|0%0|0%46|33%
1435SzeghalomHungaryRunning2017-02-24 19:171410|0%0|0%48|33%
711VaassenRED, H-field, copper shielded ...NetherlandsRunning2017-02-24 19:171650|0%0|0%55|33%
785Cuxhaven-OxstedtSystem RED with shielded ferri...GermanyRunning2017-02-24 19:191260|0%0|0%43|33%
1660Palmyra3D Orth. S. Ferrites + E-probeUnited States / VirginiaRunning2017-02-24 19:199500|0%0|0%312|32%
878AldershotRED, Dual 1m 12turn shielded, ...United KingdomRunning2017-02-24 19:191260|0%0|0%42|32%
688EinbeckREDGermanyRunning2017-02-24 19:181230|0%0|0%40|30%
941BakonyszombathelyHungaryRunning2017-02-24 19:17950|0%18|47%50|30%
1075Warrington, Cheshire (RED)RED - Indoor H FerritesUnited KingdomRunning2017-02-24 19:191240|0%0|0%38|29%
1044StradenSystem RED - FerritAustriaRunning2017-02-24 19:17930|0%30|44%48|28%
1539MacombBlue Unshielded 9.5 X 210mm Ma...United States / IllinoisRunning2017-02-24 19:1916490|0%389|28%457|27%
809Gabicce MareItalyRunning2017-02-24 19:183453|36%94|27%94|27%
546BassersdorfGreen, frame ant. shieldedSwitzerlandRunning2017-02-24 19:182000|0%4|27%55|26%
1292RoosendaalSystem REDNetherlandsRunning2017-02-24 19:181480|0%0|0%40|26%
912Maršov u ÚpiceRED - H+E-field + AS3935Czech RepublicRunning2017-02-24 19:182290|0%0|0%62|26%
1270Red Deer, AlbertaE-Field - 250mmCanadaRunning2017-02-24 19:197860|0%0|0%209|26%
944Hamburg-NeuenfeldeSystem RED - Coax loopGermanyRunning2017-02-24 19:192660|0%0|0%70|26%
1139Graz - RagnitzSystem RED, ferrite rods, shie...AustriaRunning2017-02-24 19:193000|0%38|32%78|26%
1428KercaszomorHungaryRunning2017-02-24 19:17860|0%26|39%47|26%
724Galloway250mm shielded ferritesUnited States / OhioRunning2017-02-24 19:1816720|0%421|25%432|25%
690GangloffsömmernGermanyRunning2017-02-24 19:171290|0%0|0%34|25%
946Sherman300mm x 7.5mm ferrite, AS3935United States / ConnecticutRunning2017-02-24 19:199650|0%0|0%246|25%
380Ruhland2GermanyRunning2017-02-24 19:171360|0%0|0%34|24%
707KopstalCoaxial Loop 90 cmLuxembourgRunning2017-02-24 19:181600|0%0|0%39|24%
1079Imlay City300mm shielded ferriteUnited States / MichiganRunning2017-02-24 19:1818570|0%217|23%454|24%
1608Astcote, NorthamptonshireCoax Loop and Ferrites (Blue)United KingdomRunning2017-02-24 19:171290|0%0|0%33|24%
1108Ringgenberg am B'seeSwitzerlandRunning2017-02-24 19:181220|0%12|17%31|24%
703Stone, StaffordshireRed - 2 x SKS120N outdoorsUnited KingdomRunning2017-02-24 19:181270|0%0|0%30|23%
1009SeegräbenSwitzerlandRunning2017-02-24 19:192800|0%23|22%66|23%
768Lohja (Karjalohja)Cu cross loop 90cmFinlandRunning2017-02-24 19:181050|0%0|0%35|23%
735Leipzig / LößnigGermanyRunning2017-02-24 19:182130|0%0|0%49|23%
618LübeckRED 10.3/12.3, 2*SKS200/10NGermanyRunning2017-02-24 19:181000|0%0|0%37|23%
1671Cham/Zug (Sys Blue)Stations 1671 (+1355)SwitzerlandRunning2017-02-24 19:192010|0%17|17%46|22%
1342Rocky Mountain House, ABRED; H:300x7.5, E:300CanadaRunning2017-02-24 19:199470|0%0|0%215|22%
1288ChinnorUnited KingdomRunning2017-02-24 19:191550|0%0|0%34|22%
1026DelbrückGermanyRunning2017-02-24 19:181130|0%0|0%31|22%
357SzegedHungaryRunning2017-02-24 19:171240|0%8|27%28|22%
1046Calgary, AlbertaRed, AS3935 Custom Low Noise, ...CanadaRunning2017-02-24 19:1913980|0%0|0%308|22%
1564Kastl (bei Kemnath) SYS BLUE►Loop 0.9m 9 turn☺GermanyRunning2017-02-24 19:192010|0%4|35%44|21%
587Vejle llDenmarkRunning2017-02-24 19:181170|0%0|0%30|21%
931SchorndorfSystem REDGermanyRunning2017-02-24 19:181650|0%3|31%37|21%
1505Eau ClaireBlue System H&E fieldsUnited States / WisconsinRunning2017-02-24 19:193320|0%1|29%201|21%
741StrøbyDenmarkRunning2017-02-24 19:181260|0%0|0%29|21%
1276TamworthAustralia / New South WalesRunning2017-02-24 19:1825690|0%0|0%544|21%
1419PulaSystem REDCroatiaRunning2017-02-24 19:17730|0%46|21%46|21%
1629WiesendangenSwitzerlandRunning2017-02-24 19:17990|0%3|25%34|20%
797Palestrina (RM)ItalyRunning2017-02-24 19:184180|0%85|21%85|20%
140PerugiaItalyRunning2017-02-24 19:173576|26%75|20%75|20%
443Rueras, GRGREEN, Interference Automower!SwitzerlandRunning2017-02-24 19:181060|0%17|17%31|20%
832HvarGREEN - PCB 6.5/5.5CroatiaRunning2017-02-24 19:171020|0%28|20%32|20%
1364Citrus Springs470mm x 1.6mm E-Field, 300mm x...United States / FloridaRunning2017-02-24 19:193300|0%0|0%189|20%
1061PLYMOUTHUnited KingdomRunning2017-02-24 19:181030|0%0|0%32|20%
1052HoldorfH & E-Field System RedGermanyRunning2017-02-24 19:181220|0%0|0%26|20%
992HeillecourtREDFranceRunning2017-02-24 19:192320|0%0|0%47|20%
1382WinnipegCanadaRunning2017-02-24 19:195280|0%0|0%117|19%
954Nhh REDHungaryRunning2017-02-24 19:17750|0%13|26%42|19%
1233Saint-Martin VésubieSystem REDFranceRunning2017-02-24 19:192400|0%39|21%49|19%
1188TorontoCanadaRunning2017-02-24 19:192830|0%25|45%215|19%
1360BARWELLUnited KingdomRunning2017-02-24 19:18900|0%0|0%34|19%
1588OttawaCanadaRunning2017-02-24 19:1911650|0%1|47%229|19%
957FolkestoneSystem RED - replaces station ...United KingdomRunning2017-02-24 19:182300|0%0|0%44|19%
1693AlbanyBlue: 3H-Orthogonal, E-WireUnited States / New YorkRunning2017-02-24 19:192860|0%1|51%208|19%
775Reutlingen - DG8WMRED, Ant. SKS200/10NGermanyRunning2017-02-24 19:181060|0%2|21%29|19%
1354Chatteris, CambridgeshireUnited KingdomRunning2017-02-24 19:181070|0%0|0%29|19%
1152SittardPA4EME : Syst. RED at 24 m AGLNetherlandsRunning2017-02-24 19:192740|0%0|0%53|19%
952Poznań / PlewiskaMaciej SP3GTPolandRunning2017-02-24 19:193480|0%0|0%67|19%
1327Breitenbach am InnAustriaRunning2017-02-24 19:194010|0%51|18%76|19%
1655LubbockNational Weather Service (Unde...United States / TexasRunning2017-02-24 19:1912560|0%0|0%240|19%
760MessenSwitzerlandRunning2017-02-24 19:183160|0%1|19%60|18%
1182CarlisleE-field only (testing)United States / MassachusettsRunning2017-02-24 19:193340|0%0|0%171|18%
1059Hatvan///ABSCAMHungaryRunning2017-02-24 19:19940|0%9|23%31|18%
392SaiguèdeGREEN 6.8, Loop 80cm, XLT3FranceRunning2017-02-24 19:183190|0%0|0%58|17%
598SilkeborgRED with 2 amplifiersDenmarkRunning2017-02-24 19:182910|0%0|0%52|17%
708Ybbs an der DonauAustriaRunning2017-02-24 19:191640|0%8|23%27|17%
899GentRED, Ferrit 20cmBelgiumRunning2017-02-24 19:181030|0%0|0%28|17%
777Errol, PerthshireRED- Dual Mobius, trafoUnited KingdomRunning2017-02-24 19:181610|0%0|0%29|17%
683Hämeenlinna REDRED with 400mm Mobius loop wit...FinlandRunning2017-02-24 19:182310|0%0|0%40|17%
43Bremen-VegesackGermanyRunning2017-02-24 19:182200|0%0|0%39|17%
779Rheurdt-SchaephuysenGermanyRunning2017-02-24 19:18990|0%0|0%29|17%
300LéognanFranceRunning2017-02-24 19:17990|0%0|0%27|17%
Un servizio globale, in tempo reale, basato su una community per creare un network di localizzazione dei fulmini. © 2003-2017 Blitzortung.org Contributori
Seleziona lingua del sito
češtinadanskdeutschελληνικάenglishespañolsuomeksifrançaismagyaritaliano日本語latviskinederlandsenorskpolskiрусскийсрпскиsvenskatürkукраїнський
If your language is not supported and if you want to adapt the menu language, then write an email to info ☺ blitzortung.org.